• Join FlightAware (Why Join?)
  • Login
  • US Flag 
 
06:17PM EST


 

Airport Tracker/Info


-or-


 

Live Flight TrackerFlight Track Log ✈ SWA862 ✈ 11-Apr-2013 ✈ KTPA - KRDU

Flight Track Log - Related Links

Times and Time Zones

All times are in EDT time to prevent confusion due to time zone crossing. See the SWA862 flight status page for this flight to view local times or setup timezone preferences in your user account.

Time Position Orientation Groundspeed Altitude Reporting Facility
EDT Latitude Longitude Course Direction KTS MPH feet Rate Location/Type
06:23PM 27.9667 -82.5500 180° South 190 219 800  Level Tampa TRACON
06:24PM 27.9333 -82.5500 180° South 169 194 2,300 2,400 Climbing Tampa TRACON
06:25PM 27.8833 -82.5833 211° Southwest 196 226 5,200 2,880 Climbing Tampa TRACON
06:26PM 27.8833 -82.6500 270° West 225 259 8,400 1,980 Climbing Tampa TRACON
06:28PM 28.0494 -82.6339 North 254 292 12,200 1,920 Climbing Jacksonville Center
06:29PM 28.1622 -82.5914 18° North 356 410 14,900 2,820 Climbing Jacksonville Center
06:30PM 28.2811 -82.5792 North 393 452 17,900 2,880 Climbing Jacksonville Center
06:31PM 28.4061 -82.5833 358° North 428 493 20,700 2,400 Climbing Jacksonville Center
06:32PM 28.5356 -82.5878 358° North 442 509 22,800 1,560 Climbing Jacksonville Center
06:33PM 28.6672 -82.5897 359° North 455 524 23,900 600 Climbing Jacksonville Center
06:34PM 28.7861 -82.6036 354° North 466 536 24,000 720 Climbing Jacksonville Center
06:35PM 28.9175 -82.6244 352° North 472 543 25,400 1,920 Climbing Jacksonville Center
06:36PM 29.0514 -82.6431 353° North 477 549 27,900 2,100 Climbing Jacksonville Center
06:37PM 29.1808 -82.6594 354° North 477 549 29,700 1,020 Climbing Jacksonville Center
06:38PM 29.3103 -82.6783 353° North 466 536 30,000 1,080 Climbing Jacksonville Center
06:39PM 29.4356 -82.6922 354° North 466 536 31,900 1,920 Climbing Jacksonville Center
06:40PM 29.5692 -82.6944 359° North 466 536 33,900 1,860 Climbing Jacksonville Center
06:41PM 29.6964 -82.6942 360° North 461 531 35,700 1,500 Climbing Jacksonville Center
06:42PM 29.8217 -82.6772 North 456 525 37,000 600 Climbing Jacksonville Center
06:43PM 29.9469 -82.6314 18° North 463 533 37,000 480 Level Jacksonville Center
06:44PM 30.0742 -82.5853 17° North 469 540 38,000 960 Climbing Jacksonville Center
06:45PM 30.2014 -82.5344 19° North 481 554 39,000 480 Climbing Jacksonville Center
06:46PM 30.3328 -82.4833 19° North 481 554 39,000  Level Jacksonville Center
06:47PM 30.4600 -82.4347 18° North 481 554 39,000  Level Jacksonville Center
06:48PM 30.5850 -82.3858 19° North 481 554 39,000  Level Jacksonville Center
06:49PM 30.7122 -82.3344 19° North 481 554 39,000  Level Jacksonville Center
06:50PM 30.8372 -82.2878 18° North 481 554 39,000  Level Jacksonville Center
06:51PM 30.9642 -82.2361 19° North 475 547 39,000  Level Jacksonville Center
06:52PM 31.0894 -82.1892 18° North 475 547 39,000  Level Jacksonville Center
06:53PM 31.2247 -82.1369 18° North 469 540 39,000  Level Jacksonville Center
06:54PM 31.3475 -82.0850 20° North 464 534 39,000  Level Jacksonville Center
06:55PM 31.4706 -82.0353 19° North 458 527 39,000  Level Jacksonville Center
06:56PM 31.5933 -81.9853 19° North 463 533 39,000  Level Jacksonville Center
06:57PM 31.7058 -81.9403 19° North 465 535 39,000  Level Jacksonville Center
06:58PM 31.8411 -81.8875 18° North 465 535 39,000  Level Jacksonville Center
06:59PM 31.9617 -81.8372 19° North 460 529 39,000  Level Jacksonville Center
07:00PM 32.0761 -81.7942 18° North 460 529 39,000  Level Jacksonville Center
07:01PM 32.2114 -81.7386 19° North 466 536 39,000  Level Jacksonville Center
07:02PM 32.3297 -81.6756 24° Northeast 466 536 39,000  Level Jacksonville Center
07:03PM 32.4356 -81.6078 28° Northeast 473 544 39,000  Level Jacksonville Center
07:04PM 32.5642 -81.5244 29° Northeast 473 544 39,000  Level Jacksonville Center
07:05PM 32.6719 -81.4589 27° Northeast 473 544 39,000  Level Jacksonville Center
07:06PM 32.7942 -81.3678 32° Northeast 473 544 39,000  Level Jacksonville Center
07:07PM 32.9014 -81.2769 35° Northeast 473 544 39,000  Level Jacksonville Center
07:08PM 33.0153 -81.1981 30° Northeast 473 544 39,000  Level Jacksonville Center
07:09PM 33.1292 -81.1264 28° Northeast 468 539 39,000  Level Jacksonville Center
07:10PM 33.2511 -81.0519 27° Northeast 470 541 39,000  Level Jacksonville Center
07:11PM 33.3711 -80.9750 28° Northeast 476 548 39,000  Level Jacksonville Center
07:12PM 33.4908 -80.9003 27° Northeast 476 548 39,000  Level Jacksonville Center
07:13PM 33.6128 -80.8225 28° Northeast 476 548 39,000  Level Jacksonville Center
07:14PM 33.7325 -80.7475 28° Northeast 476 548 39,000 -300 Level Jacksonville Center
07:15PM 33.8522 -80.6719 28° Northeast 481 554 38,400 -840 Descending Jacksonville Center
07:16PM 33.9719 -80.5964 28° Northeast 481 554 37,400 -960 Descending Jacksonville Center
07:17PM 34.0894 -80.5156 30° Northeast 476 548 36,500 -1,380 Descending Jacksonville Center
07:18PM 34.2089 -80.4394 28° Northeast 476 548 34,700 -2,760 Descending Jacksonville Center
07:19PM 34.3283 -80.3606 29° Northeast 476 548 31,000 -3,240 Descending Jacksonville Center
07:20PM 34.4500 -80.2864 27° Northeast 476 548 28,300 -2,760 Descending Jacksonville Center
07:21PM 34.5733 -80.2047 29° Northeast 481 554 25,500 -2,880 Descending Jacksonville Center
07:23PM 34.6933 -80.1183 31° Northeast 475 547 22,100 -2,100 Descending Washington Center
07:24PM 34.7892 -80.0075 44° Northeast 475 547 21,000 -600 Descending Washington Center
07:25PM 34.8606 -79.8847 55° Northeast 459 528 21,000  Level Washington Center
07:26PM 34.9517 -79.7833 42° Northeast 444 511 21,000  Level Washington Center
07:27PM 35.0544 -79.7075 31° Northeast 433 498 21,000 -420 Level Washington Center
07:28PM 35.1700 -79.6244 30° Northeast 427 491 20,200 -1,260 Descending Washington Center
07:29PM 35.2728 -79.5481 31° Northeast 427 491 18,500 -1,860 Descending Washington Center
07:30PM 35.3728 -79.4842 28° Northeast 424 488 16,600 -1,440 Descending Washington Center
07:31PM 35.4689 -79.4175 29° Northeast 359 413 15,700 -1,260 Descending Washington Center
07:32PM 35.5383 -79.3342 44° Northeast 349 402 14,100 -1,560 Descending Washington Center
07:33PM 35.5956 -79.2397 53° Northeast 341 392 12,600 -1,500 Descending Washington Center
07:34PM 35.6461 -79.1525 54° Northeast 351 404 11,200 -1,500 Descending Washington Center
07:35PM 35.7053 -79.0553 53° Northeast 339 390 9,600 -1,560 Descending Washington Center
07:36PM 35.7536 -78.9706 55° Northeast 323 372 8,200 -840 Descending Washington Center
07:37PM 35.8122 -78.8961 46° Northeast 302 348 8,000 -300 Descending Washington Center
07:38PM 35.8769 -78.8861 North 247 284 7,700 -720 Descending Washington Center
07:38PM 35.9361 -78.8603 19° North 262 302 6,800 -1,140 Descending Washington Center
07:39PM 35.9897 -78.8061 39° Northeast 265 305 5,800 -1,020 Descending Washington Center
07:40PM 36.0481 -78.7364 44° Northeast 256 295 4,700 -900 Descending Washington Center
07:41PM 36.0622 -78.6703 75° East 217 250 3,900 -840 Descending Washington Center
07:42PM 36.0211 -78.6481 156° South 174 200 3,000 -840 Descending Washington Center
07:43PM 35.9847 -78.6825 217° Southwest 176 203 2,300 -600 Descending Washington Center
07:45PM 35.9397 -78.7244 217° Southwest 169 194 1,800 -600 Descending Washington Center
07:45PM 35.9206 -78.7467 223° Southwest 128 147 1,200 -720 Descending Washington Center
07:46PM 35.8925 -78.7789 223° Southwest 126 145 500 -720 Descending Washington Center
07:48PM 35.8776 -78.7875 207° Southwest  Level Estimated